LLBG/TLV METAR and TAF weather

Enter ICAO airport designator
Station Type Date Time Source
LLBG METAR 2020/09/18 06:20 UTC NOAA

LLBG 180620Z 29004KT 260V330 CAVOK 29/22 Q1013 NOSIG


Station Type Date Time Source
LLBG Decoded METAR 2020/09/18 06:20 UTC NOAA

Ben-Gurion International Airport, Israel (LLBG) 32-00N 034-54E 49M
Sep 18, 2020 - 02:20 AM EDT / 2020.09.18 0620 UTC
Wind: from the WNW (290 degrees) at 5 MPH (4 KT) (direction variable):0
Visibility: greater than 7 mile(s):0
Temperature: 84 F (29 C)
Dew Point: 71 F (22 C)
Relative Humidity: 65%
Pressure (altimeter): 29.91 in. Hg (1013 hPa)
ob: LLBG 180620Z 29004KT 260V330 CAVOK 29/22 Q1013 NOSIG
cycle: 6

Station Type Date Time Source
LLBG TAF 2020/09/18 06:09 UTC NOAA

TAF TAF LLBG 180504Z 1806/1906 VRB03KT CAVOK
BECMG 1807/1809 32010KT
BECMG 1815/1817 VRB03KT PROB40 1820/1905 7000 SCT015 TX34/1811Z TN24/1904Z

Example: see airport list